Time;durP1;ratioP1;P1;durP2;ratioP2;P2;SDS_P1;SDS_P2;PMS_P1;PMS_P2;Temp;Humidity;BMP_temperature;BMP_pressure;BME280_temperature;BME280_humidity;BME280_pressure;Samples;Min_cycle;Max_cycle;Signal;HPM_P1;HPM_P2
2022/10/09 00:00:19;;;;;;;4.93;4.43;;;17.20;99.90;;;;;;4968705;28;20217;-72
2022/10/09 00:02:46;;;;;;;5.40;4.90;;;17.20;99.90;;;;;;4972191;28;20198;-73
2022/10/09 00:05:13;;;;;;;4.85;4.45;;;17.10;99.90;;;;;;4972032;28;20217;-73
2022/10/09 00:07:40;;;;;;;5.05;4.65;;;17.10;99.90;;;;;;4970514;28;20252;-73
2022/10/09 00:10:07;;;;;;;7.55;5.13;;;17.10;99.90;;;;;;4970773;28;20232;-73
2022/10/09 00:12:34;;;;;;;4.50;4.10;;;17.10;99.90;;;;;;4973047;28;20714;-73
2022/10/09 00:15:03;;;;;;;3.92;3.63;;;17.00;99.90;;;;;;4973246;28;20229;-73
2022/10/09 00:17:30;;;;;;;3.85;3.45;;;17.00;99.90;;;;;;4972022;28;20208;-73
2022/10/09 00:19:57;;;;;;;4.63;3.67;;;17.00;99.90;;;;;;4970242;28;20232;-73
2022/10/09 00:22:24;;;;;;;4.25;3.85;;;17.00;99.90;;;;;;4974059;28;20202;-73
2022/10/09 00:24:51;;;;;;;4.95;4.45;;;17.00;99.90;;;;;;5000708;23;20221;-70
2022/10/09 00:27:19;;;;;;;4.15;3.80;;;17.00;99.90;;;;;;4972135;28;20294;-70
2022/10/09 00:29:46;;;;;;;3.90;3.60;;;16.90;99.90;;;;;;4969053;28;20238;-69
2022/10/09 00:32:14;;;;;;;3.63;3.33;;;16.90;99.90;;;;;;4947135;28;20195;-69
2022/10/09 00:34:42;;;;;;;3.72;3.40;;;16.90;99.90;;;;;;4956738;28;20273;-70
2022/10/09 00:37:09;;;;;;;4.00;3.65;;;17.00;99.90;;;;;;4950937;28;20206;-70
2022/10/09 00:39:37;;;;;;;3.97;3.67;;;17.00;99.90;;;;;;4932228;28;20289;-71
2022/10/09 00:42:05;;;;;;;4.18;3.88;;;17.00;99.90;;;;;;4952087;28;20585;-71
2022/10/09 00:44:53;;;;;;;3.90;3.50;;;16.90;99.90;;;;;;4955288;28;20785;-71
2022/10/09 00:47:27;;;;;;;4.38;3.97;;;17.00;99.90;;;;;;4951026;28;20209;-71
2022/10/09 00:50:02;;;;;;;3.88;3.58;;;17.00;99.90;;;;;;4964711;28;20608;-71
2022/10/09 00:52:31;;;;;;;5.50;4.28;;;17.00;99.90;;;;;;4951560;28;20671;-70
2022/10/09 00:55:00;;;;;;;4.18;3.58;;;17.00;99.90;;;;;;4951863;28;20226;-70
2022/10/09 00:57:27;;;;;;;3.40;3.10;;;16.90;99.90;;;;;;4947446;28;20199;-70
2022/10/09 00:59:54;;;;;;;4.22;3.83;;;17.00;99.90;;;;;;4933168;28;20231;-70
2022/10/09 01:02:23;;;;;;;3.90;3.60;;;17.00;99.90;;;;;;4948605;28;20226;-69
2022/10/09 01:04:50;;;;;;;3.38;3.10;;;17.00;99.90;;;;;;4953147;28;20241;-71
2022/10/09 01:07:34;;;;;;;3.65;3.35;;;17.00;99.90;;;;;;4968410;28;20204;-70
2022/10/09 01:10:07;;;;;;;5.03;4.60;;;17.00;99.90;;;;;;4959032;28;20234;-70
2022/10/09 01:12:44;;;;;;;4.88;4.40;;;17.00;99.90;;;;;;4942820;28;20202;-69
2022/10/09 01:15:19;;;;;;;5.80;4.20;;;16.90;99.90;;;;;;4949003;28;20233;-70
2022/10/09 01:17:55;;;;;;;4.07;3.78;;;16.90;99.90;;;;;;4946093;28;20213;-69
2022/10/09 01:20:32;;;;;;;4.43;3.35;;;16.70;99.90;;;;;;4957891;28;20220;-69
2022/10/09 01:23:15;;;;;;;3.63;3.33;;;16.70;99.90;;;;;;4968056;28;20212;-70
2022/10/09 01:25:53;;;;;;;3.67;3.38;;;16.70;99.90;;;;;;4956171;28;20726;-69
2022/10/09 01:28:27;;;;;;;3.65;3.35;;;16.70;99.90;;;;;;4975578;28;20209;-70
2022/10/09 01:30:56;;;;;;;3.70;3.40;;;16.70;99.90;;;;;;4936893;28;20252;-69
2022/10/09 01:33:23;;;;;;;3.45;3.15;;;16.70;99.90;;;;;;4948732;28;20206;-70
2022/10/09 01:35:52;;;;;;;3.70;3.38;;;16.70;99.90;;;;;;4965506;28;20702;-69
2022/10/09 01:38:21;;;;;;;3.70;3.40;;;16.70;99.90;;;;;;4970485;28;20208;-70
2022/10/09 01:40:49;;;;;;;3.45;3.15;;;16.70;99.90;;;;;;4975951;28;20229;-70
2022/10/09 01:43:17;;;;;;;3.72;3.33;;;16.80;99.90;;;;;;4955646;28;20203;-70
2022/10/09 01:45:47;;;;;;;3.55;3.25;;;16.70;99.90;;;;;;4958592;28;20231;-70
2022/10/09 01:48:19;;;;;;;4.05;3.75;;;16.70;99.90;;;;;;4947274;28;20214;-70
2022/10/09 01:50:51;;;;;;;4.05;3.72;;;16.70;99.90;;;;;;4949313;28;20226;-70
2022/10/09 01:53:21;;;;;;;3.72;3.47;;;16.70;99.90;;;;;;4927140;28;20249;-70
2022/10/09 01:55:55;;;;;;;3.38;3.08;;;16.70;99.90;;;;;;4952215;28;20267;-69
2022/10/09 01:58:28;;;;;;;3.47;3.20;;;16.70;99.90;;;;;;4948020;28;20205;-69
2022/10/09 02:01:03;;;;;;;3.65;3.35;;;16.70;99.90;;;;;;4948843;28;20230;-70
2022/10/09 02:03:32;;;;;;;3.65;3.20;;;16.70;99.90;;;;;;4952800;28;20205;-70
2022/10/09 02:06:01;;;;;;;3.58;3.25;;;16.60;99.90;;;;;;4951005;28;20237;-70
2022/10/09 02:08:30;;;;;;;3.60;3.30;;;16.60;99.90;;;;;;4932520;28;20205;-70
2022/10/09 02:11:00;;;;;;;3.40;3.15;;;16.60;99.90;;;;;;4961758;28;20221;-69
2022/10/09 02:13:28;;;;;;;3.53;3.22;;;16.60;99.90;;;;;;4967193;28;20194;-70
2022/10/09 02:16:01;;;;;;;3.38;3.08;;;16.60;99.90;;;;;;4965375;28;20236;-69
2022/10/09 02:18:36;;;;;;;3.40;3.15;;;16.60;99.90;;;;;;4949243;28;20213;-69
2022/10/09 02:21:10;;;;;;;3.25;3.05;;;16.60;99.90;;;;;;4955480;28;20233;-69
2022/10/09 02:23:41;;;;;;;3.75;3.30;;;16.60;99.90;;;;;;4960214;28;20204;-69
2022/10/09 02:26:09;;;;;;;3.67;2.72;;;16.60;99.90;;;;;;4960938;28;20300;-70
2022/10/09 02:28:37;;;;;;;2.83;2.63;;;16.70;99.90;;;;;;4953059;28;20213;-70
2022/10/09 02:31:12;;;;;;;2.95;2.75;;;16.70;99.90;;;;;;4938435;28;20226;-70
2022/10/09 02:33:39;;;;;;;3.10;2.90;;;16.60;99.90;;;;;;4948015;28;20201;-69
2022/10/09 02:36:07;;;;;;;2.90;2.70;;;16.70;99.90;;;;;;4949203;28;20280;-70
2022/10/09 02:38:34;;;;;;;3.20;2.97;;;16.70;99.90;;;;;;4949248;28;20198;-71
2022/10/09 02:41:02;;;;;;;3.65;3.35;;;16.70;99.90;;;;;;4956004;28;20273;-70
2022/10/09 02:43:29;;;;;;;3.00;2.80;;;16.60;99.90;;;;;;4955340;28;20209;-70
2022/10/09 02:45:56;;;;;;;2.80;2.60;;;16.60;99.90;;;;;;4953483;28;20218;-70
2022/10/09 02:48:25;;;;;;;3.53;2.92;;;16.60;99.90;;;;;;4952958;28;20663;-70
2022/10/09 02:50:52;;;;;;;2.85;2.65;;;16.60;99.90;;;;;;4956175;28;20234;-70
2022/10/09 02:53:19;;;;;;;3.42;3.13;;;16.50;99.90;;;;;;4950178;28;20206;-70
2022/10/09 02:55:47;;;;;;;2.80;2.60;;;16.50;99.90;;;;;;4951882;28;20226;-70
2022/10/09 02:58:14;;;;;;;2.97;2.70;;;16.50;99.90;;;;;;4946407;28;20198;-71
2022/10/09 03:00:41;;;;;;;3.38;3.03;;;16.50;99.90;;;;;;4953202;28;20229;-70
2022/10/09 03:03:08;;;;;;;3.38;2.70;;;16.50;99.90;;;;;;4954941;28;20210;-70
2022/10/09 03:05:37;;;;;;;3.10;2.85;;;16.50;99.90;;;;;;4952313;28;20215;-70
2022/10/09 03:08:04;;;;;;;3.53;2.97;;;16.40;99.90;;;;;;4955546;28;20210;-69
2022/10/09 03:10:32;;;;;;;3.05;2.85;;;16.40;99.90;;;;;;4951523;28;20226;-70
2022/10/09 03:12:59;;;;;;;2.80;2.60;;;16.30;99.90;;;;;;4953937;28;20289;-71
2022/10/09 03:15:26;;;;;;;2.80;2.60;;;16.30;99.90;;;;;;4951989;28;20222;-71
2022/10/09 03:17:53;;;;;;;2.95;2.75;;;16.30;99.90;;;;;;4945944;28;20225;-71
2022/10/09 03:20:20;;;;;;;2.80;2.60;;;16.30;99.90;;;;;;4962775;28;20218;-71
2022/10/09 03:22:49;;;;;;;2.85;2.65;;;16.20;99.90;;;;;;4969838;28;20653;-71
2022/10/09 03:25:17;;;;;;;2.80;2.60;;;16.20;99.90;;;;;;4962982;28;20218;-70
2022/10/09 03:27:44;;;;;;;2.90;2.70;;;16.20;99.90;;;;;;4953432;28;20293;-70
2022/10/09 03:30:12;;;;;;;2.80;2.60;;;16.10;99.90;;;;;;4956085;28;20237;-70
2022/10/09 03:32:40;;;;;;;2.97;2.78;;;16.10;99.90;;;;;;4970935;28;20194;-70
2022/10/09 03:35:08;;;;;;;2.85;2.65;;;16.10;99.90;;;;;;4974222;28;20252;-71
2022/10/09 03:37:35;;;;;;;2.97;2.78;;;16.10;99.90;;;;;;4970163;28;20193;-71
2022/10/09 03:40:04;;;;;;;2.90;2.70;;;16.00;99.90;;;;;;4955126;28;20230;-71
2022/10/09 03:42:31;;;;;;;3.08;2.78;;;16.00;99.90;;;;;;4958590;28;20205;-71
2022/10/09 03:45:03;;;;;;;3.25;2.70;;;16.00;99.90;;;;;;4957036;28;20284;-72
2022/10/09 03:47:30;;;;;;;2.90;2.70;;;16.00;99.90;;;;;;4970616;28;20209;-71
2022/10/09 03:49:57;;;;;;;3.80;2.88;;;16.00;99.90;;;;;;4972222;28;20288;-71
2022/10/09 03:52:25;;;;;;;3.78;2.78;;;16.00;99.90;;;;;;4958627;28;20190;-71
2022/10/09 03:54:52;;;;;;;3.13;2.92;;;15.90;99.90;;;;;;4957166;28;20229;-71
2022/10/09 03:57:21;;;;;;;3.25;2.97;;;15.90;99.90;;;;;;4975433;28;20201;-71
2022/10/09 03:59:48;;;;;;;2.72;2.35;;;15.90;99.90;;;;;;4967071;28;20250;-71
2022/10/09 04:02:15;;;;;;;3.15;2.80;;;15.90;99.90;;;;;;4953132;28;21660;-71
2022/10/09 04:04:43;;;;;;;2.83;2.53;;;15.90;99.90;;;;;;4953810;28;20205;-71
2022/10/09 04:07:10;;;;;;;3.45;2.78;;;15.90;99.90;;;;;;4973651;28;20198;-71
2022/10/09 04:09:37;;;;;;;3.00;2.80;;;15.80;99.90;;;;;;4970365;28;20221;-71
2022/10/09 04:12:05;;;;;;;2.42;2.33;;;15.80;99.90;;;;;;4952699;28;20265;-70
2022/10/09 04:14:33;;;;;;;3.60;3.30;;;15.80;99.90;;;;;;4953588;28;20210;-71
2022/10/09 04:17:01;;;;;;;2.95;2.75;;;15.80;99.90;;;;;;4973125;28;20209;-70
2022/10/09 04:19:28;;;;;;;3.45;3.17;;;15.70;99.90;;;;;;4974429;28;20213;-70
2022/10/09 04:21:55;;;;;;;3.08;2.88;;;15.70;99.90;;;;;;4956059;28;20205;-70
2022/10/09 04:24:22;;;;;;;3.08;2.78;;;15.70;99.90;;;;;;4962851;28;20826;-70
2022/10/09 04:26:49;;;;;;;3.38;3.10;;;15.70;99.90;;;;;;4936818;29;20285;-70
2022/10/09 04:29:17;;;;;;;3.42;3.20;;;15.60;99.90;;;;;;4953111;28;20759;-70
2022/10/09 04:31:45;;;;;;;3.03;2.83;;;15.60;99.90;;;;;;4972710;28;20220;-70
2022/10/09 04:34:13;;;;;;;3.60;3.10;;;15.60;99.90;;;;;;4970398;28;20953;-70
2022/10/09 04:36:40;;;;;;;3.15;2.95;;;15.60;99.90;;;;;;4969035;28;20224;-70
2022/10/09 04:39:07;;;;;;;3.22;3.03;;;15.60;99.90;;;;;;4974303;28;20232;-71
2022/10/09 04:41:35;;;;;;;3.25;3.05;;;15.60;99.90;;;;;;4967722;28;20742;-71
2022/10/09 04:44:02;;;;;;;3.58;3.20;;;15.60;99.90;;;;;;4971806;28;20216;-71
2022/10/09 04:46:29;;;;;;;3.10;2.90;;;15.60;99.90;;;;;;4954943;28;20229;-71
2022/10/09 04:48:58;;;;;;;3.42;3.13;;;15.60;99.90;;;;;;4971896;28;20193;-71
2022/10/09 04:51:26;;;;;;;2.78;2.55;;;15.60;99.90;;;;;;4937691;28;20225;-71
2022/10/09 04:53:56;;;;;;;3.15;2.85;;;15.60;99.90;;;;;;4970455;28;20220;-71
2022/10/09 04:56:24;;;;;;;3.33;3.03;;;15.60;99.90;;;;;;4970102;28;20371;-71
2022/10/09 04:58:51;;;;;;;3.50;3.20;;;15.50;99.90;;;;;;4973314;28;20239;-71
2022/10/09 05:01:21;;;;;;;3.58;3.25;;;15.50;99.90;;;;;;4968206;28;20232;-71
2022/10/09 05:03:49;;;;;;;3.30;3.00;;;15.50;99.90;;;;;;4973003;28;20201;-71
2022/10/09 05:06:19;;;;;;;3.25;3.05;;;15.50;99.90;;;;;;4971934;28;20794;-71
2022/10/09 05:08:47;;;;;;;3.10;2.88;;;15.50;99.90;;;;;;4970585;28;20664;-72
2022/10/09 05:11:16;;;;;;;3.10;2.90;;;15.40;99.90;;;;;;4946598;28;20218;-71
2022/10/09 05:13:45;;;;;;;3.10;2.88;;;15.40;99.90;;;;;;4954835;28;20259;-71
2022/10/09 05:16:15;;;;;;;2.92;2.72;;;15.40;99.90;;;;;;4966154;28;20608;-71
2022/10/09 05:18:43;;;;;;;2.92;2.72;;;15.40;99.90;;;;;;4973459;28;20587;-71
2022/10/09 05:21:10;;;;;;;2.97;2.67;;;15.40;99.90;;;;;;4968563;28;20300;-71
2022/10/09 05:23:39;;;;;;;3.25;3.03;;;15.40;99.90;;;;;;4970125;28;20198;-71
2022/10/09 05:26:10;;;;;;;3.13;2.83;;;15.40;99.90;;;;;;4971283;28;20224;-71
2022/10/09 05:28:38;;;;;;;3.13;2.92;;;15.40;99.90;;;;;;4967532;28;20196;-71
2022/10/09 05:31:06;;;;;;;3.17;2.97;;;15.40;99.90;;;;;;4966205;28;20354;-71
2022/10/09 05:33:33;;;;;;;3.35;3.05;;;15.40;99.90;;;;;;4969502;28;20271;-71
2022/10/09 05:36:03;;;;;;;3.10;2.80;;;15.30;99.90;;;;;;4968295;28;20226;-71
2022/10/09 05:38:32;;;;;;;3.17;2.70;;;15.40;99.90;;;;;;4950436;28;20710;-71
2022/10/09 05:41:04;;;;;;;3.25;2.97;;;15.40;99.90;;;;;;4971263;28;20245;-71
2022/10/09 05:43:33;;;;;;;3.45;3.05;;;15.40;99.90;;;;;;4968367;28;20193;-71
2022/10/09 05:46:06;;;;;;;2.75;2.55;;;15.30;99.90;;;;;;4953841;28;20225;-71
2022/10/09 05:48:33;;;;;;;3.47;3.20;;;15.30;99.90;;;;;;4964973;28;20205;-71
2022/10/09 05:51:10;;;;;;;4.28;3.60;;;15.20;99.90;;;;;;4959688;28;20795;-71
2022/10/09 05:53:37;;;;;;;4.60;4.20;;;15.20;99.90;;;;;;4971400;28;20232;-71
2022/10/09 05:56:15;;;;;;;4.28;3.90;;;15.20;99.90;;;;;;4969416;28;20276;-71
2022/10/09 05:58:43;;;;;;;4.25;3.55;;;15.30;99.90;;;;;;4956486;28;20205;-71
2022/10/09 06:01:11;;;;;;;3.70;3.40;;;15.30;99.90;;;;;;4968571;28;20221;-71
2022/10/09 06:03:39;;;;;;;3.17;2.92;;;15.30;99.90;;;;;;4968553;28;20205;-71
2022/10/09 06:06:08;;;;;;;3.50;3.17;;;15.30;99.90;;;;;;4966275;28;20213;-71
2022/10/09 06:08:37;;;;;;;3.22;3.00;;;15.30;99.90;;;;;;4966784;28;20205;-71
2022/10/09 06:11:14;;;;;;;3.20;3.00;;;15.30;99.90;;;;;;4966462;28;20222;-71
2022/10/09 06:13:43;;;;;;;3.05;2.75;;;15.30;99.90;;;;;;4956682;28;20205;-71
2022/10/09 06:16:12;;;;;;;3.20;2.90;;;15.30;99.90;;;;;;4962196;28;20885;-71
2022/10/09 06:18:40;;;;;;;2.80;2.60;;;15.30;99.90;;;;;;4967655;28;20209;-71
2022/10/09 06:21:07;;;;;;;2.70;2.38;;;15.30;99.90;;;;;;4968012;28;20232;-71
2022/10/09 06:23:35;;;;;;;3.17;2.70;;;15.30;99.90;;;;;;4952291;28;20264;-71
2022/10/09 06:26:04;;;;;;;3.25;2.72;;;15.30;99.90;;;;;;4963588;28;20213;-71
2022/10/09 06:28:35;;;;;;;2.85;2.65;;;15.30;99.90;;;;;;4967358;28;20202;-71
2022/10/09 06:31:03;;;;;;;2.55;2.40;;;15.30;99.90;;;;;;4967599;28;20711;-71
2022/10/09 06:33:31;;;;;;;2.80;2.60;;;15.40;99.90;;;;;;4968882;28;20225;-71
2022/10/09 06:36:03;;;;;;;2.75;2.55;;;15.40;99.90;;;;;;4967658;28;20268;-71
2022/10/09 06:38:31;;;;;;;3.05;2.60;;;15.40;99.90;;;;;;4975882;28;20217;-70
2022/10/09 06:41:02;;;;;;;3.97;2.90;;;15.50;99.90;;;;;;4975412;28;20220;-71
2022/10/09 06:43:29;;;;;;;3.08;2.78;;;15.50;99.90;;;;;;4971425;28;20212;-70
2022/10/09 06:46:01;;;;;;;3.17;2.80;;;15.50;99.90;;;;;;4953864;28;21018;-70
2022/10/09 06:48:30;;;;;;;3.28;3.08;;;15.50;99.90;;;;;;4967337;28;20198;-70
2022/10/09 06:51:01;;;;;;;3.15;2.95;;;15.50;99.90;;;;;;4951182;28;20276;-70
2022/10/09 06:53:28;;;;;;;4.50;3.40;;;15.60;99.90;;;;;;4968763;28;20280;-71
2022/10/09 06:55:57;;;;;;;3.63;3.33;;;15.60;99.90;;;;;;4964477;28;20296;-70
2022/10/09 06:58:25;;;;;;;3.55;3.22;;;15.60;99.90;;;;;;4966323;28;20225;-71
2022/10/09 07:01:04;;;;;;;3.85;3.10;;;15.70;99.90;;;;;;4967620;28;20228;-71
2022/10/09 07:03:31;;;;;;;3.20;3.00;;;15.70;99.90;;;;;;4968183;28;20247;-71
2022/10/09 07:06:10;;;;;;;3.53;2.92;;;15.80;99.90;;;;;;4965684;28;20224;-71
2022/10/09 07:08:37;;;;;;;3.40;3.10;;;15.90;99.90;;;;;;4963928;28;20205;-70
2022/10/09 07:11:12;;;;;;;3.85;3.55;;;15.80;99.90;;;;;;4962948;28;20788;-71
2022/10/09 07:13:40;;;;;;;3.75;3.42;;;15.90;99.90;;;;;;4967296;28;20197;-70
2022/10/09 07:16:10;;;;;;;3.40;3.10;;;16.00;99.90;;;;;;4950592;28;20237;-70
2022/10/09 07:18:38;;;;;;;3.78;3.45;;;16.00;99.90;;;;;;4963438;28;20504;-69
2022/10/09 07:21:07;;;;;;;4.70;3.67;;;16.10;99.90;;;;;;4970259;28;20232;-71
2022/10/09 07:23:36;;;;;;;3.80;3.50;;;16.10;99.90;;;;;;4938976;28;20256;-71
2022/10/09 07:26:10;;;;;;;3.78;3.47;;;16.10;99.90;;;;;;4966824;28;20602;-70
2022/10/09 07:28:38;;;;;;;3.40;3.20;;;16.10;99.90;;;;;;4975338;28;20710;-71
2022/10/09 07:31:06;;;;;;;3.80;3.45;;;16.20;99.90;;;;;;4978693;28;20271;-71
2022/10/09 07:33:35;;;;;;;4.65;4.25;;;16.20;99.90;;;;;;4979812;28;20205;-72
2022/10/09 07:36:04;;;;;;;4.75;4.35;;;16.20;99.90;;;;;;4975407;28;20221;-72
2022/10/09 07:38:31;;;;;;;4.07;3.78;;;16.20;99.90;;;;;;4961262;28;20202;-72
2022/10/09 07:41:01;;;;;;;4.10;3.80;;;16.20;99.90;;;;;;4966488;28;20274;-72
2022/10/09 07:43:29;;;;;;;4.03;3.50;;;16.20;99.90;;;;;;4971257;28;20700;-72
2022/10/09 07:45:59;;;;;;;4.95;3.92;;;16.30;99.90;;;;;;4969472;28;20233;-68
2022/10/09 07:48:26;;;;;;;3.85;3.55;;;16.40;99.90;;;;;;4967579;28;20205;-68
2022/10/09 07:50:55;;;;;;;3.33;3.03;;;16.40;99.90;;;;;;4967489;28;20237;-71
2022/10/09 07:53:23;;;;;;;4.43;4.07;;;16.50;99.90;;;;;;4950235;28;20198;-72
2022/10/09 07:55:51;;;;;;;4.70;4.30;;;16.60;99.90;;;;;;4961607;28;20225;-70
2022/10/09 07:58:18;;;;;;;4.13;3.83;;;16.50;99.90;;;;;;4965783;28;20197;-70
2022/10/09 08:00:46;;;;;;;4.30;3.85;;;16.50;99.90;;;;;;4963544;28;20230;-69
2022/10/09 08:03:13;;;;;;;4.40;4.03;;;16.50;99.90;;;;;;4951284;28;20683;-70
2022/10/09 08:05:41;;;;;;;4.30;4.00;;;16.50;99.90;;;;;;4955082;28;20407;-70
2022/10/09 08:08:09;;;;;;;4.30;3.90;;;16.50;99.90;;;;;;4958796;28;20202;-70
2022/10/09 08:10:37;;;;;;;4.18;3.88;;;16.50;99.90;;;;;;4967982;28;20229;-70
2022/10/09 08:13:04;;;;;;;4.28;3.95;;;16.50;99.90;;;;;;4970953;28;20202;-70
2022/10/09 08:15:31;;;;;;;3.92;3.63;;;16.50;99.90;;;;;;4951761;28;20249;-70
2022/10/09 08:17:58;;;;;;;4.05;3.75;;;16.50;99.90;;;;;;4966817;28;20198;-70
2022/10/09 08:20:26;;;;;;;4.53;4.13;;;16.50;99.90;;;;;;4965541;28;20225;-70
2022/10/09 08:22:53;;;;;;;3.83;3.53;;;16.50;99.90;;;;;;4965345;28;20209;-72
2022/10/09 08:25:22;;;;;;;3.63;3.40;;;16.50;99.90;;;;;;4966956;28;20755;-72
2022/10/09 08:27:52;;;;;;;3.72;3.42;;;16.50;99.90;;;;;;4968845;28;20673;-72
2022/10/09 08:30:20;;;;;;;3.97;3.67;;;16.50;99.90;;;;;;4965130;28;20232;-70
2022/10/09 08:32:47;;;;;;;4.13;3.30;;;16.40;99.90;;;;;;4965422;28;20891;-70
2022/10/09 08:35:15;;;;;;;3.65;3.35;;;16.50;99.90;;;;;;4947104;28;20631;-70
2022/10/09 08:37:42;;;;;;;3.80;3.50;;;16.50;99.90;;;;;;4970614;28;20305;-71
2022/10/09 08:40:16;;;;;;;3.28;2.97;;;16.60;99.90;;;;;;4965398;28;20229;-70
2022/10/09 08:42:53;;;;;;;3.92;3.63;;;16.70;99.90;;;;;;4951245;28;20200;-70
2022/10/09 08:45:20;;;;;;;4.30;4.00;;;16.70;99.90;;;;;;4965508;28;20220;-71
2022/10/09 08:47:52;;;;;;;4.05;3.75;;;16.70;99.90;;;;;;4967484;28;20190;-71
2022/10/09 08:50:24;;;;;;;5.32;4.05;;;16.80;99.90;;;;;;4965272;28;20229;-71
2022/10/09 08:52:56;;;;;;;4.30;4.00;;;16.90;99.90;;;;;;4964924;28;20228;-72
2022/10/09 08:55:26;;;;;;;4.00;3.70;;;17.00;99.90;;;;;;4951955;28;20676;-72
2022/10/09 08:57:57;;;;;;;4.15;3.50;;;17.00;99.90;;;;;;4965709;28;20193;-72
2022/10/09 09:00:27;;;;;;;4.40;4.00;;;17.00;99.90;;;;;;4965640;28;20289;-72
2022/10/09 09:03:15;;;;;;;3.97;3.67;;;17.10;99.90;;;;;;4946621;28;20206;-72
2022/10/09 09:05:48;;;;;;;7.03;4.15;;;17.20;99.90;;;;;;4949145;28;20217;-71
2022/10/09 09:08:29;;;;;;;4.53;3.95;;;17.30;99.90;;;;;;4951818;28;20752;-71
2022/10/09 09:11:08;;;;;;;4.53;4.10;;;17.20;99.90;;;;;;4966367;28;20233;-71
2022/10/09 09:13:49;;;;;;;4.88;4.00;;;17.30;99.90;;;;;;4963714;28;20202;-71
2022/10/09 09:16:28;;;;;;;3.97;3.58;;;17.30;99.90;;;;;;4960137;28;20209;-71
2022/10/09 09:19:12;;;;;;;3.35;3.00;;;17.30;99.90;;;;;;4962384;28;20212;-71
2022/10/09 09:21:46;;;;;;;3.35;3.05;;;17.30;99.90;;;;;;4964437;28;20259;-71
2022/10/09 09:24:17;;;;;;;3.50;2.63;;;17.40;99.90;;;;;;4966081;28;20899;-71
2022/10/09 09:26:49;;;;;;;3.38;3.08;;;17.40;99.90;;;;;;4962063;28;20228;-71
2022/10/09 09:29:23;;;;;;;3.38;3.08;;;17.40;99.90;;;;;;4966378;28;20930;-71
2022/10/09 09:31:55;;;;;;;3.45;3.15;;;17.30;99.90;;;;;;4966844;28;20230;-71
2022/10/09 09:34:28;;;;;;;3.55;3.30;;;17.30;99.90;;;;;;4964071;28;20213;-71
2022/10/09 09:36:57;;;;;;;4.35;3.95;;;17.30;99.90;;;;;;4963345;28;20311;-70
2022/10/09 09:39:28;;;;;;;3.72;3.42;;;17.20;99.90;;;;;;4963421;28;20244;-71
2022/10/09 09:42:00;;;;;;;3.72;3.35;;;17.20;99.90;;;;;;4950677;28;20718;-73
2022/10/09 09:44:32;;;;;;;4.68;4.15;;;17.10;99.90;;;;;;4950129;28;20771;-73
2022/10/09 09:46:59;;;;;;;3.65;3.35;;;17.00;99.90;;;;;;4964965;28;20190;-72
2022/10/09 09:49:28;;;;;;;3.67;3.38;;;17.00;99.90;;;;;;4961049;28;20225;-72
2022/10/09 09:51:58;;;;;;;4.47;3.92;;;17.00;99.90;;;;;;4964878;28;20197;-72
2022/10/09 09:54:28;;;;;;;4.30;3.90;;;16.90;99.90;;;;;;4965145;28;20233;-72
2022/10/09 09:56:58;;;;;;;4.22;3.65;;;16.90;99.90;;;;;;4967372;28;20213;-73
2022/10/09 09:59:44;;;;;;;4.20;3.80;;;16.90;99.90;;;;;;4951588;28;20222;-75
2022/10/09 10:02:13;;;;;;;3.95;3.60;;;16.90;99.90;;;;;;4963678;28;20201;-72
2022/10/09 10:04:53;;;;;;;3.88;3.58;;;16.90;99.90;;;;;;4963353;28;20208;-73
2022/10/09 10:07:31;;;;;;;4.38;3.53;;;16.80;99.90;;;;;;4964471;28;20190;-71
2022/10/09 10:10:06;;;;;;;3.80;3.42;;;16.80;99.90;;;;;;4967809;28;20896;-71
2022/10/09 10:12:34;;;;;;;4.60;4.20;;;16.80;99.90;;;;;;4960923;28;20868;-71
2022/10/09 10:15:03;;;;;;;3.65;3.33;;;16.80;99.90;;;;;;4958180;28;20237;-70
2022/10/09 10:17:35;;;;;;;3.50;3.20;;;16.80;99.90;;;;;;4963262;28;20288;-70
2022/10/09 10:20:06;;;;;;;5.18;3.90;;;16.80;99.90;;;;;;4948886;28;20641;-72
2022/10/09 10:22:34;;;;;;;3.90;3.55;;;16.90;99.90;;;;;;4947895;28;20198;-71
2022/10/09 10:25:02;;;;;;;3.63;3.33;;;17.00;99.90;;;;;;4961068;28;20897;-71
2022/10/09 10:27:35;;;;;;;3.83;3.53;;;17.10;99.90;;;;;;4966302;28;20675;-71
2022/10/09 10:30:06;;;;;;;3.40;3.10;;;17.20;99.90;;;;;;4968937;28;20275;-71
2022/10/09 10:32:35;;;;;;;4.28;3.42;;;17.40;99.90;;;;;;4963715;28;20577;-71
2022/10/09 10:35:06;;;;;;;3.47;3.00;;;17.40;99.90;;;;;;4963468;28;20225;-71
2022/10/09 10:37:44;;;;;;;3.75;3.45;;;17.50;99.90;;;;;;4961978;28;20222;-71
2022/10/09 10:40:17;;;;;;;4.07;3.78;;;17.50;99.90;;;;;;4964410;28;20225;-71
2022/10/09 10:42:59;;;;;;;3.10;2.90;;;17.40;99.90;;;;;;4969210;28;20256;-70
2022/10/09 10:45:34;;;;;;;3.63;3.20;;;17.30;99.90;;;;;;4972416;28;20229;-72
2022/10/09 10:48:03;;;;;;;3.72;3.30;;;17.40;99.90;;;;;;4950460;28;20212;-72
2022/10/09 10:50:38;;;;;;;3.72;3.05;;;17.30;99.90;;;;;;4966321;28;20236;-72
2022/10/09 10:53:16;;;;;;;3.47;3.17;;;17.20;99.90;;;;;;4963835;28;20209;-73
2022/10/09 10:55:53;;;;;;;4.18;3.05;;;17.10;99.90;;;;;;4962302;28;20802;-74
2022/10/09 10:58:26;;;;;;;3.63;3.33;;;17.00;99.90;;;;;;4968824;28;20221;-74
2022/10/09 11:01:12;;;;;;;3.30;3.00;;;17.00;99.90;;;;;;4951556;28;20669;-74
2022/10/09 11:03:54;;;;;;;3.65;3.03;;;17.00;99.90;;;;;;4969468;28;20213;-72
2022/10/09 11:06:28;;;;;;;3.00;2.80;;;17.10;99.90;;;;;;4965148;28;20217;-74
2022/10/09 11:09:07;;;;;;;4.28;3.95;;;17.10;99.90;;;;;;4968661;28;20193;-74
2022/10/09 11:11:39;;;;;;;3.72;3.42;;;17.20;99.90;;;;;;4969294;28;20229;-76
2022/10/09 11:14:19;;;;;;;3.10;2.90;;;17.20;99.90;;;;;;4968839;28;20209;-74
2022/10/09 11:17:00;;;;;;;3.28;3.00;;;17.30;99.90;;;;;;4967432;28;20734;-75
2022/10/09 11:19:48;;;;;;;3.85;3.38;;;17.50;99.90;;;;;;4968280;28;20221;-73
2022/10/09 11:22:34;;;;;;;3.65;3.35;;;17.50;99.90;;;;;;4936856;28;20200;-74
2022/10/09 11:25:25;;;;;;;3.35;2.90;;;17.60;99.90;;;;;;4949387;28;20256;-73
2022/10/09 11:27:55;;;;;;;4.00;3.42;;;17.80;99.90;;;;;;4954272;28;20194;-73
2022/10/09 11:30:24;;;;;;;4.18;3.22;;;18.00;99.90;;;;;;4950180;28;21348;-76
2022/10/09 11:33:12;;;;;;;3.85;3.45;;;18.20;99.90;;;;;;4947779;28;20226;-75
2022/10/09 11:35:45;;;;;;;3.80;3.05;;;18.40;99.90;;;;;;4965249;28;20232;-71
2022/10/09 11:38:24;;;;;;;3.80;3.47;;;18.60;99.90;;;;;;4961396;28;20711;-74
2022/10/09 11:40:53;;;;;;;3.53;3.17;;;18.60;99.90;;;;;;4972270;28;20224;-73
2022/10/09 11:43:42;;;;;;;3.63;3.33;;;18.70;99.90;;;;;;4936474;28;20307;-72
2022/10/09 11:46:16;;;;;;;4.15;3.60;;;18.90;99.90;;;;;;4963504;28;20719;-72
2022/10/09 11:48:53;;;;;;;3.53;3.00;;;18.90;99.90;;;;;;4969029;28;20193;-73
2022/10/09 11:51:27;;;;;;;3.60;2.92;;;19.00;99.90;;;;;;4965841;28;20229;-76
2022/10/09 11:53:55;;;;;;;4.72;2.75;;;19.20;99.90;;;;;;4963924;28;20601;-73
2022/10/09 11:56:25;;;;;;;4.15;3.40;;;19.60;99.90;;;;;;4958138;28;20218;-73
2022/10/09 11:59:00;;;;;;;3.10;2.80;;;19.90;99.90;;;;;;4964233;28;20222;-74
2022/10/09 12:01:32;;;;;;;2.80;2.58;;;19.90;99.90;;;;;;4964042;28;20229;-73
2022/10/09 12:04:09;;;;;;;3.60;2.67;;;20.00;99.90;;;;;;4965113;28;20205;-74
2022/10/09 12:06:47;;;;;;;2.75;2.50;;;20.00;99.90;;;;;;4967643;28;20231;-74
2022/10/09 12:09:22;;;;;;;3.15;2.85;;;20.00;99.90;;;;;;4967553;28;20780;-72
2022/10/09 12:11:59;;;;;;;2.75;2.55;;;19.90;99.90;;;;;;4963658;28;20744;-74
2022/10/09 12:14:28;;;;;;;3.33;3.03;;;20.00;99.90;;;;;;4950468;28;20284;-75
2022/10/09 12:16:56;;;;;;;2.45;2.25;;;20.00;99.90;;;;;;4967649;28;20807;-75
2022/10/09 12:19:29;;;;;;;2.90;2.60;;;20.00;99.90;;;;;;4930355;28;20217;-75
2022/10/09 12:22:03;;;;;;;2.65;2.45;;;19.80;99.90;;;;;;4960612;28;20197;-76
2022/10/09 12:24:37;;;;;;;3.55;2.50;;;19.80;99.90;;;;;;4962533;28;22273;-74
2022/10/09 12:27:06;;;;;;;2.72;2.50;;;19.70;99.90;;;;;;4961045;28;20320;-74
2022/10/09 12:29:39;;;;;;;2.88;2.67;;;19.70;99.90;;;;;;4943355;28;20221;-74
2022/10/09 12:32:13;;;;;;;2.83;2.58;;;19.50;99.90;;;;;;4945142;28;20260;-74
2022/10/09 12:34:47;;;;;;;2.55;2.35;;;19.40;99.90;;;;;;4932600;28;20237;-74
2022/10/09 12:37:17;;;;;;;3.20;2.90;;;19.30;99.90;;;;;;4964557;28;20217;-74
2022/10/09 12:39:46;;;;;;;4.07;2.88;;;19.20;99.90;;;;;;4949113;28;20256;-74
2022/10/09 12:42:23;;;;;;;3.28;2.97;;;19.20;99.90;;;;;;4961824;28;20248;-74
2022/10/09 12:44:52;;;;;;;2.55;2.35;;;19.10;99.90;;;;;;4941754;28;20221;-74
2022/10/09 12:47:25;;;;;;;2.95;2.60;;;19.10;99.90;;;;;;4966191;28;20197;-75
2022/10/09 12:50:03;;;;;;;2.63;2.42;;;19.10;99.90;;;;;;4949877;28;20229;-76
2022/10/09 12:52:32;;;;;;;2.17;2.08;;;19.20;99.90;;;;;;4964460;28;20229;-74
2022/10/09 12:55:01;;;;;;;2.30;2.10;;;19.20;99.90;;;;;;4952114;28;20990;-74
2022/10/09 12:57:30;;;;;;;2.40;2.20;;;19.30;99.90;;;;;;4946035;28;20217;-73
2022/10/09 12:59:58;;;;;;;2.45;2.25;;;19.40;99.90;;;;;;4959419;28;20225;-73
2022/10/09 13:02:25;;;;;;;2.60;1.88;;;19.30;99.90;;;;;;4952445;28;20205;-74
2022/10/09 13:05:00;;;;;;;3.70;2.70;;;19.30;99.90;;;;;;4969060;28;20229;-73